createdAt,value
2023-03-12T00:01:19.220Z,5.35
2023-03-12T00:03:46.510Z,5.38
2023-03-12T00:06:13.695Z,5.40
2023-03-12T00:08:40.838Z,5.60
2023-03-12T00:11:12.654Z,5.07
2023-03-12T00:13:40.591Z,5.97
2023-03-12T00:16:12.771Z,5.40
2023-03-12T00:18:39.435Z,5.95
2023-03-12T00:21:06.765Z,5.50
2023-03-12T00:23:33.605Z,5.80
2023-03-12T00:26:08.677Z,5.95
2023-03-12T00:28:35.667Z,6.07
2023-03-12T00:31:19.732Z,6.18
2023-03-12T00:33:46.802Z,6.23
2023-03-12T00:36:13.298Z,6.28
2023-03-12T00:38:40.712Z,5.55
2023-03-12T00:41:07.138Z,5.85
2023-03-12T00:43:33.711Z,6.00
2023-03-12T00:46:00.286Z,6.00
2023-03-12T00:48:26.806Z,5.78
2023-03-12T00:50:53.317Z,5.80
2023-03-12T00:53:19.984Z,5.40
2023-03-12T00:55:46.484Z,5.30
2023-03-12T00:58:13.025Z,5.60
2023-03-12T01:00:40.002Z,5.25
2023-03-12T01:03:06.501Z,4.90
2023-03-12T01:05:35.169Z,5.10
2023-03-12T01:08:01.760Z,4.65
2023-03-12T01:10:28.325Z,4.80
2023-03-12T01:12:54.822Z,4.90
2023-03-12T01:15:21.818Z,4.82
2023-03-12T01:17:48.547Z,4.60
2023-03-12T01:20:15.584Z,4.80
2023-03-12T01:22:42.344Z,4.57
2023-03-12T01:25:09.115Z,4.32
2023-03-12T01:27:35.665Z,4.70
2023-03-12T01:30:04.010Z,4.82
2023-03-12T01:32:30.537Z,4.75
2023-03-12T01:34:58.618Z,4.47
2023-03-12T01:37:25.080Z,4.63
2023-03-12T01:39:51.711Z,4.32
2023-03-12T01:42:18.443Z,4.55
2023-03-12T01:44:59.734Z,4.78
2023-03-12T01:47:27.683Z,4.43
2023-03-12T01:49:55.832Z,4.60
2023-03-12T01:52:30.663Z,4.63
2023-03-12T01:55:11.728Z,4.60
2023-03-12T01:57:43.167Z,4.68
2023-03-12T02:00:16.485Z,4.70
2023-03-12T02:02:44.696Z,4.82
2023-03-12T02:05:29.090Z,4.70
2023-03-12T02:07:55.799Z,5.15
2023-03-12T02:10:23.823Z,4.97
2023-03-12T02:12:51.134Z,5.27
2023-03-12T02:15:17.902Z,5.07
2023-03-12T02:17:44.414Z,4.82
2023-03-12T02:20:16.814Z,5.25
2023-03-12T02:22:49.495Z,4.90
2023-03-12T02:25:21.944Z,5.30
2023-03-12T02:27:48.649Z,5.00
2023-03-12T02:30:17.177Z,5.40
2023-03-12T02:32:45.278Z,5.47
2023-03-12T02:35:14.293Z,5.38
2023-03-12T02:37:48.821Z,5.60
2023-03-12T02:40:26.374Z,5.47
2023-03-12T02:42:53.209Z,5.53
2023-03-12T02:45:20.266Z,5.22
2023-03-12T02:47:46.933Z,5.40
2023-03-12T02:50:13.446Z,5.20
2023-03-12T02:52:39.940Z,5.32
2023-03-12T02:55:07.070Z,5.50
2023-03-12T02:57:33.859Z,5.40
2023-03-12T03:00:00.412Z,5.13
2023-03-12T03:02:26.883Z,6.00
2023-03-12T03:04:53.421Z,5.63
2023-03-12T03:07:19.873Z,5.50
2023-03-12T03:09:46.383Z,5.57
2023-03-12T03:12:12.791Z,5.72
2023-03-12T03:14:39.256Z,5.60
2023-03-12T03:17:05.964Z,5.70
2023-03-12T03:19:32.501Z,5.68
2023-03-12T03:21:58.995Z,5.90
2023-03-12T03:24:25.547Z,6.07
2023-03-12T03:26:52.008Z,6.00
2023-03-12T03:29:18.508Z,5.85
2023-03-12T03:31:45.005Z,6.05
2023-03-12T03:34:11.864Z,5.47
2023-03-12T03:36:38.666Z,6.35
2023-03-12T03:39:05.092Z,6.20
2023-03-12T03:41:32.155Z,6.60
2023-03-12T03:43:59.401Z,7.22
2023-03-12T03:46:26.444Z,7.03
2023-03-12T03:48:53.003Z,7.50
2023-03-12T03:51:19.499Z,6.97
2023-03-12T03:53:46.044Z,6.53
2023-03-12T03:56:15.182Z,7.50
2023-03-12T03:58:42.191Z,7.68
2023-03-12T04:01:09.208Z,6.95
2023-03-12T04:03:35.936Z,7.23
2023-03-12T04:06:04.969Z,7.05
2023-03-12T04:08:32.292Z,8.23
2023-03-12T04:10:58.852Z,8.10
2023-03-12T04:13:25.369Z,7.88
2023-03-12T04:15:53.505Z,8.80
2023-03-12T04:18:20.619Z,7.68
2023-03-12T04:20:47.132Z,8.75
2023-03-12T04:23:13.617Z,9.13
2023-03-12T04:25:40.058Z,9.13
2023-03-12T04:28:06.853Z,8.43
2023-03-12T04:30:34.129Z,9.85
2023-03-12T04:33:00.710Z,10.48
2023-03-12T04:35:27.179Z,9.07
2023-03-12T04:37:53.741Z,11.05
2023-03-12T04:40:20.381Z,11.13
2023-03-12T04:42:48.054Z,11.57
2023-03-12T04:45:15.178Z,10.95
2023-03-12T04:47:41.875Z,11.38
2023-03-12T04:50:09.154Z,11.52
2023-03-12T04:52:35.890Z,11.67
2023-03-12T04:55:02.326Z,12.43
2023-03-12T04:57:28.771Z,11.98
2023-03-12T04:59:55.456Z,12.70
2023-03-12T05:02:21.947Z,12.25
2023-03-12T05:04:48.476Z,10.63
2023-03-12T05:07:15.079Z,10.70
2023-03-12T05:09:42.103Z,11.30
2023-03-12T05:12:08.693Z,11.30
2023-03-12T05:14:35.143Z,10.65
2023-03-12T05:17:01.712Z,10.63
2023-03-12T05:19:28.181Z,10.18
2023-03-12T05:21:54.654Z,10.20
2023-03-12T05:24:21.308Z,9.90
2023-03-12T05:26:47.782Z,9.98
2023-03-12T05:29:14.438Z,8.93
2023-03-12T05:31:41.203Z,9.77
2023-03-12T05:34:07.802Z,9.27
2023-03-12T05:36:34.367Z,8.80
2023-03-12T05:39:00.976Z,8.52
2023-03-12T05:41:29.705Z,8.90
2023-03-12T05:43:57.123Z,9.15
2023-03-12T05:46:25.550Z,9.07
2023-03-12T05:48:52.443Z,9.30
2023-03-12T05:51:19.358Z,10.20
2023-03-12T05:53:46.572Z,9.33
2023-03-12T05:56:18.469Z,9.88
2023-03-12T05:58:47.327Z,10.00
2023-03-12T06:01:18.079Z,9.98
2023-03-12T06:03:45.412Z,10.20
2023-03-12T06:06:13.233Z,9.90
2023-03-12T06:08:40.645Z,9.70
2023-03-12T06:11:07.516Z,9.18
2023-03-12T06:13:34.513Z,9.60
2023-03-12T06:16:07.060Z,10.55
2023-03-12T06:18:35.224Z,10.43
2023-03-12T06:21:13.415Z,11.32
2023-03-12T06:23:40.696Z,11.18
2023-03-12T06:26:07.798Z,12.05
2023-03-12T06:28:35.315Z,12.43
2023-03-12T06:31:02.175Z,11.83
2023-03-12T06:33:28.760Z,12.32
2023-03-12T06:35:56.241Z,12.73
2023-03-12T06:38:23.200Z,12.82
2023-03-12T06:41:04.605Z,12.63
2023-03-12T06:43:32.532Z,12.40
2023-03-12T06:46:00.565Z,12.05
2023-03-12T06:48:29.023Z,11.23
2023-03-12T06:50:55.641Z,12.75
2023-03-12T06:53:23.461Z,11.88
2023-03-12T06:55:51.075Z,13.23
2023-03-12T06:58:18.510Z,13.75
2023-03-12T07:00:45.343Z,13.43
2023-03-12T07:03:11.886Z,13.23
2023-03-12T07:05:38.355Z,13.52
2023-03-12T07:08:05.462Z,14.33
2023-03-12T07:10:32.022Z,13.80
2023-03-12T07:12:58.567Z,14.05
2023-03-12T07:15:25.103Z,15.85
2023-03-12T07:17:51.760Z,17.05
2023-03-12T07:20:18.567Z,16.70
2023-03-12T07:22:45.078Z,17.85
2023-03-12T07:25:12.229Z,17.08
2023-03-12T07:27:38.831Z,19.73
2023-03-12T07:30:05.939Z,17.88
2023-03-12T07:32:32.512Z,18.07
2023-03-12T07:34:59.093Z,18.58
2023-03-12T07:37:25.653Z,19.00
2023-03-12T07:39:52.159Z,19.38
2023-03-12T07:42:18.957Z,20.73
2023-03-12T07:44:45.962Z,19.30
2023-03-12T07:47:23.200Z,21.30
2023-03-12T07:49:50.442Z,23.48
2023-03-12T07:52:17.003Z,24.27
2023-03-12T07:54:43.721Z,21.75
2023-03-12T07:57:10.303Z,22.90
2023-03-12T07:59:36.867Z,23.77
2023-03-12T08:02:03.652Z,25.10
2023-03-12T08:04:30.436Z,27.50
2023-03-12T08:06:57.050Z,27.02
2023-03-12T08:09:23.561Z,28.10
2023-03-12T08:11:52.408Z,26.48
2023-03-12T08:14:18.919Z,27.58
2023-03-12T08:16:45.539Z,26.95
2023-03-12T08:19:12.882Z,25.25
2023-03-12T08:21:39.285Z,27.47
2023-03-12T08:24:05.874Z,26.73
2023-03-12T08:26:32.503Z,25.73
2023-03-12T08:28:59.045Z,25.20
2023-03-12T08:31:30.251Z,23.48
2023-03-12T08:33:56.747Z,21.27
2023-03-12T08:36:23.513Z,22.45
2023-03-12T08:38:50.096Z,21.25
2023-03-12T08:41:16.570Z,21.90
2023-03-12T08:43:43.092Z,22.08
2023-03-12T08:46:12.185Z,20.40
2023-03-12T08:48:39.026Z,19.73
2023-03-12T08:51:05.874Z,20.83
2023-03-12T08:53:34.269Z,19.67
2023-03-12T08:56:01.992Z,19.95
2023-03-12T08:58:28.902Z,20.07
2023-03-12T09:00:56.474Z,18.48
2023-03-12T09:03:24.626Z,18.45
2023-03-12T09:06:01.761Z,17.30
2023-03-12T09:08:28.415Z,17.35
2023-03-12T09:10:54.882Z,16.87
2023-03-12T09:13:21.435Z,15.18
2023-03-12T09:15:47.931Z,15.90
2023-03-12T09:18:14.493Z,15.82
2023-03-12T09:20:43.033Z,16.10
2023-03-12T09:23:09.741Z,16.63
2023-03-12T09:25:36.267Z,17.25
2023-03-12T09:28:02.790Z,16.73
2023-03-12T09:30:29.432Z,15.55
2023-03-12T09:32:56.062Z,14.40
2023-03-12T09:35:22.536Z,15.27
2023-03-12T09:37:49.941Z,15.40
2023-03-12T09:40:20.422Z,14.07
2023-03-12T09:42:53.462Z,15.65
2023-03-12T09:45:26.391Z,14.32
2023-03-12T09:47:59.912Z,15.07
2023-03-12T09:50:30.478Z,14.80
2023-03-12T09:52:56.924Z,12.98
2023-03-12T09:55:24.501Z,13.98
2023-03-12T09:57:52.237Z,12.35
2023-03-12T10:00:30.280Z,13.83
2023-03-12T10:03:12.434Z,13.32
2023-03-12T10:06:10.361Z,12.73
2023-03-12T10:08:56.010Z,13.15
2023-03-12T10:11:55.499Z,10.25
2023-03-12T10:14:34.237Z,10.23
2023-03-12T10:17:18.686Z,9.80
2023-03-12T10:20:22.292Z,10.10
2023-03-12T10:23:03.730Z,8.40
2023-03-12T10:25:39.505Z,8.88
2023-03-12T10:28:16.615Z,7.70
2023-03-12T10:30:50.276Z,8.07
2023-03-12T10:33:19.257Z,7.72
2023-03-12T10:35:45.954Z,6.90
2023-03-12T10:38:19.962Z,6.88
2023-03-12T10:40:47.544Z,6.43
2023-03-12T10:43:13.972Z,6.20
2023-03-12T10:46:10.604Z,7.05
2023-03-12T10:48:37.142Z,6.10
2023-03-12T10:51:09.327Z,6.13
2023-03-12T10:53:43.634Z,6.00
2023-03-12T10:56:15.894Z,5.57
2023-03-12T10:58:44.998Z,5.05
2023-03-12T11:01:17.234Z,5.20
2023-03-12T11:03:44.816Z,5.45
2023-03-12T11:06:23.922Z,5.53
2023-03-12T11:09:16.701Z,5.10
2023-03-12T11:11:46.129Z,5.50
2023-03-12T11:14:22.043Z,4.50
2023-03-12T11:16:49.992Z,5.18
2023-03-12T11:19:33.069Z,5.23
2023-03-12T11:22:08.621Z,4.10
2023-03-12T11:24:36.673Z,4.55
2023-03-12T11:27:20.404Z,3.92
2023-03-12T11:29:50.437Z,4.00
2023-03-12T11:32:28.481Z,4.00
2023-03-12T11:34:55.581Z,4.50
2023-03-12T11:37:42.281Z,4.75
2023-03-12T11:40:39.928Z,4.15
2023-03-12T11:43:43.153Z,5.30
2023-03-12T11:46:32.159Z,4.67
2023-03-12T11:48:58.613Z,4.07
2023-03-12T11:51:57.555Z,5.03
2023-03-12T11:54:45.842Z,5.55
2023-03-12T11:57:15.160Z,5.72
2023-03-12T11:59:56.873Z,5.63
2023-03-12T12:02:35.668Z,6.00
2023-03-12T12:05:08.240Z,5.43
2023-03-12T12:07:54.951Z,5.47
2023-03-12T12:10:33.786Z,5.88
2023-03-12T12:13:12.521Z,5.10
2023-03-12T12:15:47.052Z,5.00
2023-03-12T12:18:43.798Z,4.28
2023-03-12T12:21:16.194Z,4.72
2023-03-12T12:24:05.100Z,4.60
2023-03-12T12:26:44.562Z,4.70
2023-03-12T12:29:28.217Z,3.75
2023-03-12T12:31:57.542Z,4.35
2023-03-12T12:35:01.922Z,4.35
2023-03-12T12:37:34.022Z,4.05
2023-03-12T12:40:10.650Z,3.63
2023-03-12T12:42:49.524Z,3.92
2023-03-12T12:45:16.123Z,3.42
2023-03-12T12:47:53.011Z,3.30
2023-03-12T12:50:24.356Z,3.60
2023-03-12T12:53:04.100Z,3.33
2023-03-12T12:55:49.561Z,3.35
2023-03-12T12:58:26.771Z,3.47
2023-03-12T13:01:00.321Z,3.10
2023-03-12T13:03:27.829Z,3.63
2023-03-12T13:05:56.198Z,3.30
2023-03-12T13:08:31.737Z,3.53
2023-03-12T13:11:16.297Z,3.30
2023-03-12T13:13:48.425Z,3.33
2023-03-12T13:16:33.649Z,3.85
2023-03-12T13:19:14.329Z,3.63
2023-03-12T13:21:51.120Z,3.08
2023-03-12T13:24:26.663Z,3.22
2023-03-12T13:27:03.918Z,3.67
2023-03-12T13:29:30.367Z,3.90
2023-03-12T13:31:57.673Z,4.20
2023-03-12T13:34:26.174Z,3.55
2023-03-12T13:36:59.646Z,3.25
2023-03-12T13:39:36.461Z,3.22
2023-03-12T13:42:24.877Z,3.80
2023-03-12T13:44:52.537Z,4.23
2023-03-12T13:47:30.962Z,3.38
2023-03-12T13:50:00.562Z,3.65
2023-03-12T13:52:30.409Z,3.10
2023-03-12T13:55:21.889Z,3.45
2023-03-12T13:57:53.293Z,3.20
2023-03-12T14:00:39.205Z,2.97
2023-03-12T14:03:26.892Z,3.60
2023-03-12T14:06:12.353Z,3.00
2023-03-12T14:08:57.153Z,3.22
2023-03-12T14:11:56.141Z,3.50
2023-03-12T14:14:53.889Z,2.90
2023-03-12T14:17:23.795Z,3.50
2023-03-12T14:20:04.904Z,3.70
2023-03-12T14:22:37.984Z,3.92
2023-03-12T14:25:36.586Z,3.20
2023-03-12T14:28:10.431Z,3.78
2023-03-12T14:30:42.828Z,3.60
2023-03-12T14:33:13.128Z,3.85
2023-03-12T14:35:47.728Z,3.70
2023-03-12T14:38:32.780Z,3.80
2023-03-12T14:41:04.836Z,3.25
2023-03-12T14:43:33.697Z,2.95
2023-03-12T14:46:06.661Z,3.40
2023-03-12T14:48:37.417Z,3.38
2023-03-12T14:51:05.977Z,3.37
2023-03-12T14:53:41.881Z,3.50
2023-03-12T14:56:21.672Z,4.18
2023-03-12T14:58:49.675Z,3.88
2023-03-12T15:01:22.576Z,4.28
2023-03-12T15:04:15.314Z,4.00
2023-03-12T15:06:47.881Z,3.97
2023-03-12T15:09:21.046Z,3.92
2023-03-12T15:11:54.292Z,4.10
2023-03-12T15:14:22.355Z,4.35
2023-03-12T15:16:49.404Z,3.80
2023-03-12T15:19:21.584Z,4.15
2023-03-12T15:21:48.424Z,4.43
2023-03-12T15:24:15.081Z,3.67
2023-03-12T15:26:41.936Z,3.83
2023-03-12T15:29:14.356Z,3.70
2023-03-12T15:31:50.269Z,5.43
2023-03-12T15:34:35.294Z,4.32
2023-03-12T15:37:04.336Z,4.93
2023-03-12T15:39:35.595Z,5.05
2023-03-12T15:42:09.085Z,5.57
2023-03-12T15:44:48.221Z,5.55
2023-03-12T15:47:21.438Z,5.15
2023-03-12T15:49:55.219Z,5.20
2023-03-12T15:52:21.559Z,4.80
2023-03-12T15:55:09.797Z,4.40
2023-03-12T15:57:47.558Z,5.68
2023-03-12T16:00:31.860Z,4.18
2023-03-12T16:03:03.292Z,4.88
2023-03-12T16:05:36.299Z,4.68
2023-03-12T16:08:21.492Z,4.37
2023-03-12T16:10:49.892Z,4.38
2023-03-12T16:13:18.487Z,3.70
2023-03-12T16:15:47.349Z,4.25
2023-03-12T16:18:16.604Z,3.60
2023-03-12T16:20:43.624Z,4.43
2023-03-12T16:23:10.604Z,3.92
2023-03-12T16:25:38.149Z,4.35
2023-03-12T16:28:06.471Z,4.15
2023-03-12T16:30:36.024Z,4.13
2023-03-12T16:33:08.650Z,3.33
2023-03-12T16:35:35.524Z,3.30
2023-03-12T16:38:03.224Z,3.53
2023-03-12T16:40:34.274Z,3.65
2023-03-12T16:43:03.120Z,3.58
2023-03-12T16:45:31.232Z,5.23
2023-03-12T16:48:03.448Z,4.40
2023-03-12T16:50:30.363Z,3.95
2023-03-12T16:52:57.964Z,4.20
2023-03-12T16:55:29.843Z,5.47
2023-03-12T16:58:00.298Z,4.03
2023-03-12T17:00:29.773Z,4.15
2023-03-12T17:02:57.698Z,4.00
2023-03-12T17:05:26.293Z,4.05
2023-03-12T17:07:53.047Z,4.20
2023-03-12T17:10:19.949Z,4.50
2023-03-12T17:12:48.422Z,4.50
2023-03-12T17:15:21.000Z,4.03
2023-03-12T17:17:48.570Z,4.70
2023-03-12T17:20:17.244Z,4.22
2023-03-12T17:22:43.807Z,4.50
2023-03-12T17:25:26.848Z,5.28
2023-03-12T17:27:53.531Z,3.38
2023-03-12T17:30:20.157Z,4.10
2023-03-12T17:32:46.682Z,5.05
2023-03-12T17:35:13.361Z,5.40
2023-03-12T17:37:39.950Z,5.07
2023-03-12T17:40:07.187Z,4.40
2023-03-12T17:42:35.011Z,5.00
2023-03-12T17:45:02.399Z,4.50
2023-03-12T17:47:30.866Z,4.73
2023-03-12T17:49:57.976Z,5.13
2023-03-12T17:52:24.663Z,3.92
2023-03-12T17:54:51.280Z,3.92
2023-03-12T17:57:18.013Z,4.03
2023-03-12T17:59:44.636Z,5.03
2023-03-12T18:02:13.247Z,3.72
2023-03-12T18:04:39.816Z,3.92
2023-03-12T18:07:06.273Z,3.60
2023-03-12T18:09:32.842Z,5.15
2023-03-12T18:11:59.607Z,3.60
2023-03-12T18:14:26.107Z,4.57
2023-03-12T18:16:52.678Z,3.97
2023-03-12T18:19:19.415Z,3.55
2023-03-12T18:21:45.877Z,4.30
2023-03-12T18:24:14.495Z,3.63
2023-03-12T18:26:41.272Z,4.07
2023-03-12T18:29:07.752Z,3.80
2023-03-12T18:31:34.234Z,3.38
2023-03-12T18:34:00.680Z,4.57
2023-03-12T18:36:27.158Z,3.50
2023-03-12T18:38:53.703Z,4.28
2023-03-12T18:41:20.149Z,3.53
2023-03-12T18:43:46.725Z,3.30
2023-03-12T18:46:13.250Z,3.63
2023-03-12T18:48:41.368Z,3.87
2023-03-12T18:51:08.862Z,3.90
2023-03-12T18:53:35.317Z,3.42
2023-03-12T18:56:01.845Z,4.00
2023-03-12T18:58:28.848Z,4.43
2023-03-12T19:00:57.441Z,4.33
2023-03-12T19:03:25.453Z,3.95
2023-03-12T19:06:07.030Z,3.28
2023-03-12T19:08:34.210Z,3.83
2023-03-12T19:11:03.238Z,4.65
2023-03-12T19:13:29.702Z,5.20
2023-03-12T19:16:00.705Z,3.95
2023-03-12T19:18:28.134Z,4.10
2023-03-12T19:20:55.370Z,4.32
2023-03-12T19:23:22.410Z,3.88
2023-03-12T19:25:49.136Z,3.70
2023-03-12T19:28:15.677Z,5.28
2023-03-12T19:30:42.215Z,4.53
2023-03-12T19:33:08.888Z,4.00
2023-03-12T19:35:39.539Z,4.05
2023-03-12T19:38:06.044Z,5.07
2023-03-12T19:40:33.322Z,7.97
2023-03-12T19:43:00.788Z,6.68
2023-03-12T19:45:27.430Z,5.45
2023-03-12T19:47:53.911Z,5.75
2023-03-12T19:50:20.397Z,6.50
2023-03-12T19:52:47.772Z,5.57
2023-03-12T19:55:14.626Z,4.70
2023-03-12T19:57:41.201Z,14.68
2023-03-12T20:00:09.006Z,6.15
2023-03-12T20:02:38.581Z,7.67
2023-03-12T20:05:06.574Z,6.35
2023-03-12T20:07:33.095Z,5.22
2023-03-12T20:09:59.550Z,5.30
2023-03-12T20:12:26.291Z,5.82
2023-03-12T20:14:52.756Z,5.47
2023-03-12T20:17:19.238Z,6.43
2023-03-12T20:19:45.793Z,8.75
2023-03-12T20:22:12.378Z,5.70
2023-03-12T20:24:38.866Z,6.93
2023-03-12T20:27:05.700Z,6.30
2023-03-12T20:29:32.256Z,5.50
2023-03-12T20:31:58.817Z,6.53
2023-03-12T20:34:25.409Z,5.97
2023-03-12T20:36:51.928Z,6.32
2023-03-12T20:39:18.418Z,6.73
2023-03-12T20:41:44.921Z,7.25
2023-03-12T20:44:11.422Z,6.10
2023-03-12T20:46:37.991Z,5.60
2023-03-12T20:49:04.564Z,5.80
2023-03-12T20:51:31.050Z,5.27
2023-03-12T20:53:57.598Z,5.45
2023-03-12T20:56:24.030Z,5.63
2023-03-12T20:58:50.500Z,6.95
2023-03-12T21:01:17.028Z,5.78
2023-03-12T21:03:43.489Z,5.87
2023-03-12T21:06:09.972Z,5.80
2023-03-12T21:08:36.420Z,6.88
2023-03-12T21:11:06.838Z,6.43
2023-03-12T21:13:33.469Z,6.30
2023-03-12T21:15:59.892Z,5.47
2023-03-12T21:18:26.424Z,5.90
2023-03-12T21:20:53.103Z,6.80
2023-03-12T21:23:19.698Z,6.85
2023-03-12T21:25:46.193Z,5.72
2023-03-12T21:28:12.982Z,5.50
2023-03-12T21:30:39.563Z,5.80
2023-03-12T21:33:06.129Z,6.32
2023-03-12T21:35:32.682Z,5.10
2023-03-12T21:37:59.324Z,4.75
2023-03-12T21:40:25.850Z,4.93
2023-03-12T21:42:52.439Z,5.82
2023-03-12T21:45:18.954Z,4.65
2023-03-12T21:47:45.409Z,4.82
2023-03-12T21:50:11.973Z,4.35
2023-03-12T21:52:41.259Z,4.17
2023-03-12T21:55:09.858Z,4.65
2023-03-12T21:57:36.321Z,4.55
2023-03-12T22:00:03.842Z,4.40
2023-03-12T22:02:30.370Z,4.45
2023-03-12T22:04:58.999Z,4.03
2023-03-12T22:07:25.611Z,4.00
2023-03-12T22:09:52.142Z,3.85
2023-03-12T22:12:18.672Z,4.28
2023-03-12T22:14:45.105Z,3.83
2023-03-12T22:17:11.697Z,3.93
2023-03-12T22:19:39.919Z,3.80
2023-03-12T22:22:07.419Z,3.55
2023-03-12T22:24:33.951Z,3.45
2023-03-12T22:27:00.449Z,4.03
2023-03-12T22:29:27.262Z,3.23
2023-03-12T22:31:53.722Z,3.60
2023-03-12T22:34:20.148Z,3.38
2023-03-12T22:36:46.701Z,3.75
2023-03-12T22:39:13.270Z,3.47
2023-03-12T22:41:39.706Z,4.07
2023-03-12T22:44:07.411Z,3.53
2023-03-12T22:46:34.154Z,3.20
2023-03-12T22:49:02.953Z,3.60
2023-03-12T22:51:31.231Z,3.60
2023-03-12T22:53:57.763Z,3.43
2023-03-12T22:56:24.748Z,3.70
2023-03-12T22:58:51.310Z,3.67
2023-03-12T23:01:20.470Z,3.90
2023-03-12T23:03:47.697Z,3.80
2023-03-12T23:06:15.891Z,3.30
2023-03-12T23:08:42.848Z,3.30
2023-03-12T23:11:10.642Z,3.70
2023-03-12T23:13:39.681Z,3.67
2023-03-12T23:16:15.230Z,3.75
2023-03-12T23:18:41.764Z,3.60
2023-03-12T23:21:10.783Z,4.30
2023-03-12T23:23:37.848Z,4.15
2023-03-12T23:26:04.410Z,3.90
2023-03-12T23:28:31.362Z,3.72
2023-03-12T23:31:03.336Z,3.93
2023-03-12T23:33:30.610Z,4.20
2023-03-12T23:36:00.123Z,4.82
2023-03-12T23:38:28.533Z,4.53
2023-03-12T23:41:20.048Z,4.85
2023-03-12T23:43:46.760Z,4.43
2023-03-12T23:46:14.770Z,3.95
2023-03-12T23:48:41.497Z,4.30
2023-03-12T23:51:10.791Z,4.43
2023-03-12T23:53:39.074Z,4.78
2023-03-12T23:56:08.653Z,4.43
2023-03-12T23:58:35.537Z,4.40
